createdAt,value
2018-08-21T00:01:04.578Z,28.05
2018-08-21T00:02:14.391Z,27.98
2018-08-21T00:03:24.231Z,27.98
2018-08-21T00:04:34.328Z,27.94
2018-08-21T00:05:44.427Z,27.99
2018-08-21T00:06:54.242Z,27.89
2018-08-21T00:08:03.808Z,27.93
2018-08-21T00:09:13.902Z,27.84
2018-08-21T00:10:23.994Z,27.81
2018-08-21T00:11:34.078Z,27.84
2018-08-21T00:12:44.176Z,27.72
2018-08-21T00:13:54.314Z,27.66
2018-08-21T00:15:04.402Z,27.65
2018-08-21T00:16:14.219Z,27.65
2018-08-21T00:17:24.319Z,27.64
2018-08-21T00:18:34.397Z,27.57
2018-08-21T00:19:44.521Z,27.49
2018-08-21T00:20:54.597Z,27.38
2018-08-21T00:22:04.699Z,27.38
2018-08-21T00:23:14.775Z,27.45
2018-08-21T00:24:24.598Z,27.43
2018-08-21T00:25:34.676Z,27.37
2018-08-21T00:26:44.532Z,27.31
2018-08-21T00:27:54.603Z,27.28
2018-08-21T00:29:04.684Z,27.28
2018-08-21T00:30:14.746Z,27.19
2018-08-21T00:31:24.891Z,27.18
2018-08-21T00:32:34.977Z,27.19
2018-08-21T00:33:45.057Z,27.15
2018-08-21T00:34:54.869Z,27.12
2018-08-21T00:36:04.948Z,27.08
2018-08-21T00:37:15.085Z,27.08
2018-08-21T00:38:25.155Z,27.06
2018-08-21T00:39:35.240Z,27.06
2018-08-21T00:40:45.378Z,27.04
2018-08-21T00:41:55.194Z,26.97
2018-08-21T00:43:05.077Z,26.94
2018-08-21T00:44:15.161Z,26.93
2018-08-21T00:45:24.965Z,26.96
2018-08-21T00:46:35.052Z,26.91
2018-08-21T00:47:45.153Z,26.97
2018-08-21T00:48:55.228Z,26.93
2018-08-21T00:50:05.311Z,26.91
2018-08-21T00:51:15.390Z,26.86
2018-08-21T00:52:25.481Z,26.89
2018-08-21T00:53:35.563Z,26.82
2018-08-21T00:54:45.435Z,26.78
2018-08-21T00:55:55.500Z,26.78
2018-08-21T00:57:05.689Z,26.82
2018-08-21T00:58:15.773Z,26.71
2018-08-21T00:59:25.864Z,26.74
2018-08-21T01:00:35.933Z,26.69
2018-08-21T01:01:46.014Z,26.63
2018-08-21T01:02:56.098Z,26.61
2018-08-21T01:04:06.187Z,26.64
2018-08-21T01:05:16.268Z,26.54
2018-08-21T01:06:26.149Z,26.57
2018-08-21T01:07:36.238Z,26.63
2018-08-21T01:08:46.305Z,26.67
2018-08-21T01:09:56.406Z,26.57
2018-08-21T01:11:06.512Z,26.57
2018-08-21T01:12:16.592Z,26.61
2018-08-21T01:13:26.663Z,26.53
2018-08-21T01:14:36.753Z,26.47
2018-08-21T01:15:46.841Z,26.53
2018-08-21T01:16:56.931Z,26.45
2018-08-21T01:18:06.770Z,26.44
2018-08-21T01:19:16.865Z,26.45
2018-08-21T01:20:26.449Z,26.39
2018-08-21T01:21:36.534Z,26.44
2018-08-21T01:22:46.614Z,26.42
2018-08-21T01:23:56.697Z,26.42
2018-08-21T01:25:06.562Z,26.53
2018-08-21T01:26:16.635Z,26.42
2018-08-21T01:27:26.732Z,26.42
2018-08-21T01:28:36.863Z,26.47
2018-08-21T01:29:46.992Z,26.45
2018-08-21T01:30:57.071Z,26.42
2018-08-21T01:32:07.160Z,26.44
2018-08-21T01:33:17.245Z,26.42
2018-08-21T01:34:27.322Z,26.3
2018-08-21T01:35:37.207Z,26.42
2018-08-21T01:36:47.286Z,26.32
2018-08-21T01:37:57.376Z,26.3
2018-08-21T01:39:07.455Z,26.31
2018-08-21T01:40:17.557Z,26.3
2018-08-21T01:41:27.650Z,26.3
2018-08-21T01:42:37.468Z,26.24
2018-08-21T01:43:47.592Z,26.32
2018-08-21T01:44:57.411Z,26.35
2018-08-21T01:46:07.509Z,26.24
2018-08-21T01:47:17.595Z,26.24
2018-08-21T01:48:27.679Z,26.24
2018-08-21T01:49:37.762Z,26.27
2018-08-21T01:50:47.608Z,26.15
2018-08-21T01:51:57.694Z,26.24
2018-08-21T01:53:07.520Z,26.23
2018-08-21T01:54:17.606Z,26.2
2018-08-21T01:55:27.707Z,26.17
2018-08-21T01:56:37.792Z,26.11
2018-08-21T01:57:47.922Z,26.11
2018-08-21T01:58:58.049Z,26.07
2018-08-21T02:00:08.144Z,26.03
2018-08-21T02:01:17.971Z,26.01
2018-08-21T02:02:28.050Z,25.96
2018-08-21T02:03:38.133Z,25.94
2018-08-21T02:04:48.230Z,25.88
2018-08-21T02:05:58.323Z,25.85
2018-08-21T02:07:08.154Z,25.85
2018-08-21T02:08:18.230Z,25.91
2018-08-21T02:09:28.347Z,25.81
2018-08-21T02:10:38.423Z,25.85
2018-08-21T02:11:48.253Z,25.84
2018-08-21T02:12:58.339Z,25.75
2018-08-21T02:14:08.428Z,25.7
2018-08-21T02:15:18.264Z,25.7
2018-08-21T02:16:28.353Z,25.63
2018-08-21T02:17:38.169Z,25.66
2018-08-21T02:18:48.263Z,25.71
2018-08-21T02:19:58.330Z,25.67
2018-08-21T02:21:08.297Z,25.64
2018-08-21T02:22:18.438Z,25.62
2018-08-21T02:23:28.515Z,25.56
2018-08-21T02:24:38.624Z,25.54
2018-08-21T02:25:48.704Z,25.52
2018-08-21T02:26:58.803Z,25.52
2018-08-21T02:28:08.882Z,25.51
2018-08-21T02:29:18.958Z,25.52
2018-08-21T02:30:28.773Z,25.49
2018-08-21T02:31:38.864Z,25.38
2018-08-21T02:32:48.684Z,25.47
2018-08-21T02:33:58.767Z,25.39
2018-08-21T02:35:08.577Z,25.34
2018-08-21T02:36:18.656Z,25.39
2018-08-21T02:37:28.479Z,25.32
2018-08-21T02:38:38.580Z,25.33
2018-08-21T02:39:48.674Z,25.33
2018-08-21T02:40:58.750Z,25.26
2018-08-21T02:42:08.844Z,25.24
2018-08-21T02:43:18.404Z,25.22
2018-08-21T02:44:28.481Z,25.22
2018-08-21T02:45:38.571Z,25.17
2018-08-21T02:46:48.665Z,25.26
2018-08-21T02:47:58.482Z,25.19
2018-08-21T02:49:08.556Z,25.15
2018-08-21T02:50:18.370Z,25.12
2018-08-21T02:51:28.480Z,25.17
2018-08-21T02:52:38.571Z,25.08
2018-08-21T02:53:48.647Z,25.08
2018-08-21T02:54:58.479Z,25.15
2018-08-21T02:56:08.561Z,25.12
2018-08-21T02:57:18.688Z,25.11
2018-08-21T02:58:28.768Z,25.14
2018-08-21T02:59:38.591Z,25.19
2018-08-21T03:00:48.658Z,25.19
2018-08-21T03:01:58.498Z,25.19
2018-08-21T03:35:12.484Z,23.15
2018-08-21T03:36:22.575Z,23.15
2018-08-21T03:37:32.650Z,23.18
2018-08-21T03:38:42.460Z,23.16
2018-08-21T03:39:52.549Z,23.18
2018-08-21T03:41:02.446Z,23.21
2018-08-21T03:42:12.543Z,23.24
2018-08-21T03:43:22.630Z,23.38
2018-08-21T03:44:32.692Z,23.37
2018-08-21T03:45:42.765Z,23.53
2018-08-21T03:46:52.634Z,23.56
2018-08-21T03:48:02.459Z,23.72
2018-08-21T03:49:12.550Z,23.7
2018-08-21T03:50:22.635Z,23.84
2018-08-21T03:51:32.744Z,23.84
2018-08-21T03:52:42.892Z,23.97
2018-08-21T03:53:52.712Z,23.94
2018-08-21T03:55:02.784Z,24.07
2018-08-21T03:56:12.865Z,24.04
2018-08-21T03:57:22.952Z,24.11
2018-08-21T03:58:32.764Z,24.14
2018-08-21T03:59:42.567Z,24.14
2018-08-21T04:00:52.384Z,24.26
2018-08-21T04:02:02.459Z,24.3
2018-08-21T04:03:12.540Z,24.33
2018-08-21T04:04:22.446Z,24.37
2018-08-21T04:05:32.528Z,24.33
2018-08-21T04:06:42.605Z,24.4
2018-08-21T04:07:52.682Z,24.46
2018-08-21T04:09:02.503Z,24.48
2018-08-21T04:10:12.584Z,24.52
2018-08-21T04:11:22.668Z,24.56
2018-08-21T04:12:32.487Z,24.56
2018-08-21T04:13:42.576Z,24.59
2018-08-21T04:14:52.406Z,24.67
2018-08-21T04:16:02.266Z,24.63
2018-08-21T04:17:12.344Z,24.78
2018-08-21T04:18:22.167Z,24.7
2018-08-21T04:19:32.301Z,24.71
2018-08-21T04:20:42.388Z,24.77
2018-08-21T04:21:52.539Z,24.78
2018-08-21T04:23:03.251Z,24.74
2018-08-21T04:24:13.094Z,24.86
2018-08-21T04:25:22.918Z,24.97
2018-08-21T04:26:32.985Z,25.02
2018-08-21T04:27:43.075Z,25
2018-08-21T04:28:53.156Z,25.19
2018-08-21T04:30:03.216Z,25.24
2018-08-21T04:31:13.291Z,25.29
2018-08-21T04:32:23.362Z,25.29
2018-08-21T04:33:33.172Z,25.47
2018-08-21T04:34:43.243Z,25.66
2018-08-21T04:35:53.320Z,25.96
2018-08-21T04:37:03.411Z,26.17
2018-08-21T04:38:13.618Z,26.38
2018-08-21T04:39:23.238Z,26.64
2018-08-21T04:40:33.310Z,26.93
2018-08-21T04:41:43.384Z,27.06
2018-08-21T04:42:53.462Z,27.13
2018-08-21T04:44:03.274Z,27.33
2018-08-21T04:45:13.140Z,27.49
2018-08-21T04:46:23.619Z,27.69
2018-08-21T04:47:34.048Z,27.91
2018-08-21T04:48:43.862Z,27.93
2018-08-21T04:49:53.956Z,28.09
2018-08-21T04:51:04.039Z,28.17
2018-08-21T04:52:13.853Z,28.36
2018-08-21T04:53:23.936Z,28.48
2018-08-21T04:54:34.037Z,28.61
2018-08-21T04:55:43.876Z,28.79
2018-08-21T04:56:54.005Z,28.88
2018-08-21T04:58:04.070Z,29.05
2018-08-21T04:59:14.533Z,29.18
2018-08-21T05:00:24.676Z,29.28
2018-08-21T05:01:34.789Z,29.23
2018-08-21T05:02:44.975Z,29.48
2018-08-21T05:03:55.064Z,29.55
2018-08-21T05:05:05.259Z,29.61
2018-08-21T05:06:15.372Z,29.72
2018-08-21T05:07:25.450Z,30.02
2018-08-21T05:08:35.511Z,30.03
2018-08-21T05:09:45.608Z,30.09
2018-08-21T05:10:55.680Z,30.19
2018-08-21T05:12:05.768Z,30.26
2018-08-21T05:13:15.843Z,30.45
2018-08-21T05:14:25.921Z,30.52
2018-08-21T05:15:36.024Z,30.66
2018-08-21T05:16:46.107Z,30.79
2018-08-21T05:17:55.969Z,30.78
2018-08-21T05:19:06.130Z,30.78
2018-08-21T05:20:16.207Z,30.84
2018-08-21T05:21:26.283Z,30.91
2018-08-21T05:22:36.416Z,30.91
2018-08-21T05:23:46.234Z,30.88
2018-08-21T05:24:56.066Z,30.89
2018-08-21T05:26:06.252Z,30.89
2018-08-21T05:27:16.346Z,30.96
2018-08-21T05:28:26.570Z,31.03
2018-08-21T05:29:36.590Z,31.01
2018-08-21T05:30:46.670Z,31.13
2018-08-21T05:31:56.819Z,31.21
2018-08-21T05:33:06.897Z,31.28
2018-08-21T05:34:16.974Z,31.33
2018-08-21T05:35:27.044Z,31.47
2018-08-21T05:36:37.121Z,31.44
2018-08-21T05:37:47.257Z,31.47
2018-08-21T05:38:57.341Z,31.43
2018-08-21T05:40:07.434Z,31.45
2018-08-21T05:41:17.523Z,31.41
2018-08-21T05:42:27.615Z,31.45
2018-08-21T05:43:37.884Z,31.53
2018-08-21T05:44:48.449Z,31.6
2018-08-21T05:45:58.566Z,31.63
2018-08-21T05:47:08.664Z,31.43
2018-08-21T05:48:18.746Z,31.01
2018-08-21T05:49:28.900Z,30.57
2018-08-21T05:50:38.983Z,30.19
2018-08-21T05:51:49.077Z,30.02
2018-08-21T05:52:58.892Z,30.11
2018-08-21T05:54:08.973Z,30.19
2018-08-21T05:55:19.310Z,30.07
2018-08-21T05:56:29.801Z,29.72
2018-08-21T05:57:39.869Z,29.51
2018-08-21T05:58:49.961Z,29.51
2018-08-21T06:00:00.041Z,29.42
2018-08-21T06:01:10.114Z,29.35
2018-08-21T06:02:19.931Z,29.36
2018-08-21T06:03:29.746Z,29.26
2018-08-21T06:04:39.837Z,29.23
2018-08-21T06:05:49.920Z,29.42
2018-08-21T06:06:59.804Z,29.54
2018-08-21T06:08:09.730Z,29.65
2018-08-21T06:09:19.569Z,29.72
2018-08-21T06:10:29.687Z,29.55
2018-08-21T06:11:39.511Z,29.33
2018-08-21T06:12:49.660Z,29.18
2018-08-21T06:13:59.476Z,29.06
2018-08-21T06:15:09.743Z,29.03
2018-08-21T06:16:19.815Z,28.94
2018-08-21T06:17:29.916Z,28.9
2018-08-21T06:18:40.032Z,28.85
2018-08-21T06:19:50.160Z,28.85
2018-08-21T06:20:59.989Z,28.92
2018-08-21T06:22:10.071Z,28.88
2018-08-21T06:23:19.883Z,28.97
2018-08-21T06:24:29.696Z,28.92
2018-08-21T06:25:39.780Z,28.91
2018-08-21T06:26:49.905Z,28.91
2018-08-21T06:27:59.997Z,28.95
2018-08-21T06:29:10.065Z,29.03
2018-08-21T06:30:19.878Z,29.11
2018-08-21T06:31:29.706Z,29.01
2018-08-21T06:32:39.517Z,29.05
2018-08-21T06:33:49.611Z,29.01
2018-08-21T06:34:59.448Z,29.03
2018-08-21T06:36:09.726Z,28.97
2018-08-21T06:37:19.998Z,29.01
2018-08-21T06:38:30.093Z,28.98
2018-08-21T06:39:40.316Z,28.97
2018-08-21T06:40:50.653Z,28.98
2018-08-21T06:42:01.078Z,28.98
2018-08-21T06:43:10.894Z,28.98
2018-08-21T06:44:20.963Z,29.05
2018-08-21T06:45:31.052Z,29.08
2018-08-21T06:46:41.515Z,29.05
2018-08-21T06:47:51.615Z,29.18
2018-08-21T06:49:01.429Z,29.2
2018-08-21T06:50:11.512Z,29.14
2018-08-21T06:51:21.597Z,29.18
2018-08-21T06:52:31.699Z,29.15
2018-08-21T06:53:41.523Z,29.18
2018-08-21T06:54:51.598Z,29.13
2018-08-21T06:56:01.748Z,29.21
2018-08-21T06:57:11.831Z,29.06
2018-08-21T06:58:21.912Z,29.24
2018-08-21T06:59:31.742Z,29.29
2018-08-21T07:00:41.829Z,29.2
2018-08-21T07:01:51.900Z,29.23
2018-08-21T07:03:01.733Z,29.38
2018-08-21T07:04:11.817Z,29.43
2018-08-21T07:05:21.922Z,29.4
2018-08-21T07:06:32.021Z,29.42
2018-08-21T07:07:41.847Z,29.45
2018-08-21T07:08:51.931Z,29.48
2018-08-21T07:10:01.743Z,29.47
2018-08-21T07:11:11.822Z,29.42
2018-08-21T07:12:21.898Z,29.47
2018-08-21T07:13:31.715Z,29.48
2018-08-21T07:14:41.552Z,29.52
2018-08-21T07:15:51.644Z,29.51
2018-08-21T07:17:01.732Z,29.57
2018-08-21T07:18:11.809Z,29.65
2018-08-21T07:19:21.902Z,29.67
2018-08-21T07:20:31.995Z,29.66
2018-08-21T07:21:41.810Z,29.73
2018-08-21T07:22:51.896Z,29.72
2018-08-21T07:24:02.004Z,29.61
2018-08-21T07:25:12.098Z,29.6
2018-08-21T07:26:21.924Z,29.72
2018-08-21T07:27:31.500Z,29.75
2018-08-21T07:28:41.622Z,29.77
2018-08-21T07:29:51.719Z,29.84
2018-08-21T07:31:01.801Z,29.88
2018-08-21T07:32:11.616Z,29.87
2018-08-21T07:33:21.479Z,30
2018-08-21T07:34:31.580Z,29.97
2018-08-21T07:35:41.488Z,30.04
2018-08-21T07:36:51.784Z,30.02
2018-08-21T07:38:01.869Z,30.06
2018-08-21T07:39:11.943Z,30.07
2018-08-21T07:40:22.010Z,30.1
2018-08-21T07:41:32.087Z,30.09
2018-08-21T07:42:42.177Z,30.09
2018-08-21T07:43:52.001Z,30.11
2018-08-21T07:45:02.072Z,30.1
2018-08-21T07:46:12.151Z,30.1
2018-08-21T07:47:22.354Z,30.16
2018-08-21T07:48:32.183Z,30.26
2018-08-21T07:49:42.306Z,30.31
2018-08-21T07:50:52.146Z,30.35
2018-08-21T07:52:02.287Z,30.48
2018-08-21T07:53:12.112Z,30.47
2018-08-21T07:54:21.925Z,30.44
2018-08-21T07:55:31.519Z,30.45
2018-08-21T07:56:41.615Z,30.49
2018-08-21T07:57:51.535Z,30.47
2018-08-21T07:59:01.611Z,30.6
2018-08-21T08:00:11.709Z,30.67
2018-08-21T08:01:21.521Z,30.64
2018-08-21T08:02:31.594Z,30.69
2018-08-21T08:03:41.696Z,30.69
2018-08-21T08:04:51.791Z,30.73
2018-08-21T08:06:01.876Z,30.75
2018-08-21T08:07:11.983Z,30.84
2018-08-21T08:08:22.119Z,30.86
2018-08-21T08:09:32.208Z,30.99
2018-08-21T08:10:41.771Z,31.07
2018-08-21T08:11:51.594Z,31.08
2018-08-21T08:13:01.451Z,31.08
2018-08-21T08:14:11.928Z,31.1
2018-08-21T08:15:21.495Z,31.12
2018-08-21T08:16:31.594Z,31.22
2018-08-21T08:17:41.419Z,31.18
2018-08-21T08:18:51.263Z,31.19
2018-08-21T08:20:01.158Z,31.26
2018-08-21T08:21:11.146Z,31.41
2018-08-21T08:22:21.232Z,31.41
2018-08-21T08:23:31.648Z,31.43
2018-08-21T08:24:41.331Z,31.41
2018-08-21T08:25:51.411Z,31.59
2018-08-21T08:27:01.501Z,31.65
2018-08-21T08:28:11.324Z,31.67
2018-08-21T08:29:21.424Z,31.62
2018-08-21T08:30:31.514Z,31.65
2018-08-21T08:31:41.586Z,31.65
2018-08-21T08:32:51.431Z,31.74
2018-08-21T08:34:01.524Z,31.8
2018-08-21T08:35:11.640Z,31.74
2018-08-21T08:36:21.742Z,31.8
2018-08-21T08:37:31.846Z,31.82
2018-08-21T08:38:41.680Z,31.91
2018-08-21T08:39:51.757Z,31.91
2018-08-21T08:41:01.832Z,32.03
2018-08-21T08:42:11.923Z,31.98
2018-08-21T08:43:22.014Z,32
2018-08-21T08:44:32.114Z,32.05
2018-08-21T08:45:41.681Z,32
2018-08-21T08:46:50.983Z,32.01
2018-08-21T08:48:00.786Z,32.01
2018-08-21T08:49:10.893Z,32.08
2018-08-21T08:50:21.047Z,32.17
2018-08-21T08:51:30.880Z,32.16
2018-08-21T08:52:40.746Z,32.17
2018-08-21T08:53:50.818Z,32.25
2018-08-21T08:55:00.107Z,32.27
2018-08-21T08:56:10.298Z,32.35
2018-08-21T08:57:20.150Z,32.38
2018-08-21T08:58:30.402Z,32.35
2018-08-21T08:59:40.633Z,32.47
2018-08-21T09:00:50.714Z,32.5
2018-08-21T09:02:00.801Z,32.52
2018-08-21T09:03:10.922Z,32.54
2018-08-21T09:04:21.019Z,32.47
2018-08-21T09:05:31.217Z,32.53
2018-08-21T09:06:41.298Z,32.54
2018-08-21T09:07:51.369Z,32.5
2018-08-21T09:09:01.446Z,32.49
2018-08-21T09:10:11.276Z,32.56
2018-08-21T09:11:21.359Z,32.59
2018-08-21T09:12:31.436Z,32.68
2018-08-21T09:13:41.512Z,32.62
2018-08-21T09:14:51.594Z,32.74
2018-08-21T09:16:01.666Z,32.76
2018-08-21T09:17:11.479Z,32.76
2018-08-21T09:18:21.558Z,32.87
2018-08-21T09:19:31.367Z,33.01
2018-08-21T09:20:41.183Z,33.03
2018-08-21T09:21:51.275Z,33.03
2018-08-21T09:23:01.355Z,33.12
2018-08-21T09:24:11.176Z,33.16
2018-08-21T09:25:21.001Z,33.21
2018-08-21T09:26:31.073Z,33.18
2018-08-21T09:27:41.419Z,33.21
2018-08-21T09:28:51.594Z,33.21
2018-08-21T09:30:01.446Z,33.17
2018-08-21T09:31:11.519Z,33.18
2018-08-21T09:32:21.616Z,33.12
2018-08-21T09:33:31.703Z,33.21
2018-08-21T09:34:41.520Z,33.21
2018-08-21T09:35:51.616Z,33.2
2018-08-21T09:37:01.713Z,33.2
2018-08-21T09:38:11.660Z,33.28
2018-08-21T09:39:22.044Z,33.24
2018-08-21T09:40:31.924Z,33.26
2018-08-21T09:41:42.006Z,33.32
2018-08-21T09:42:52.106Z,33.34
2018-08-21T09:44:02.203Z,33.31
2018-08-21T09:45:12.302Z,33.37
2018-08-21T09:46:22.180Z,33.4
2018-08-21T09:47:32.267Z,33.41
2018-08-21T09:48:42.357Z,33.47
2018-08-21T09:49:52.439Z,33.5
2018-08-21T09:51:02.248Z,33.46
2018-08-21T09:52:12.392Z,33.47
2018-08-21T09:53:22.482Z,33.52
2018-08-21T09:54:32.318Z,33.61
2018-08-21T09:55:42.406Z,33.63
2018-08-21T09:56:52.508Z,33.77
2018-08-21T09:58:02.703Z,33.71
2018-08-21T09:59:12.790Z,33.87
2018-08-21T10:00:22.901Z,33.84
2018-08-21T10:01:32.742Z,33.85
2018-08-21T10:02:42.816Z,33.95
2018-08-21T10:03:52.901Z,33.9
2018-08-21T10:05:03.223Z,34.02
2018-08-21T10:06:13.328Z,34.06
2018-08-21T10:07:23.416Z,34.1
2018-08-21T10:08:33.494Z,34.17
2018-08-21T10:09:43.311Z,34.19
2018-08-21T10:10:53.410Z,34.32
2018-08-21T10:12:03.491Z,34.39
2018-08-21T10:13:13.334Z,34.33
2018-08-21T10:14:23.437Z,34.39
2018-08-21T10:15:33.554Z,34.34
2018-08-21T10:16:43.655Z,34.17
2018-08-21T10:17:53.732Z,34.21
2018-08-21T10:19:03.826Z,34.18
2018-08-21T10:20:13.658Z,34.12
2018-08-21T10:21:23.529Z,34.12
2018-08-21T10:22:33.630Z,34.15
2018-08-21T10:23:43.722Z,34.22
2018-08-21T10:24:53.812Z,34.24
2018-08-21T10:26:03.643Z,34.27
2018-08-21T10:27:13.481Z,34.34
2018-08-21T10:28:23.580Z,34.34
2018-08-21T10:29:33.418Z,34.41
2018-08-21T10:30:43.532Z,34.41
2018-08-21T10:31:53.606Z,34.4
2018-08-21T10:33:03.784Z,34.49
2018-08-21T10:34:13.907Z,34.39
2018-08-21T10:35:23.730Z,34.43
2018-08-21T10:36:33.559Z,34.48
2018-08-21T10:37:43.670Z,34.52
2018-08-21T10:38:53.755Z,34.56
2018-08-21T10:40:03.862Z,34.66
2018-08-21T10:41:13.702Z,34.69
2018-08-21T10:42:23.534Z,34.72
2018-08-21T10:43:33.614Z,34.75
2018-08-21T10:44:43.701Z,34.78
2018-08-21T10:45:53.819Z,34.83
2018-08-21T10:47:03.379Z,34.84
2018-08-21T10:48:13.200Z,34.81
2018-08-21T10:49:23.029Z,34.87
2018-08-21T10:50:33.134Z,34.86
2018-08-21T10:51:43.321Z,34.81
2018-08-21T10:52:53.446Z,34.83
2018-08-21T10:54:03.546Z,34.89
2018-08-21T10:55:13.657Z,34.99
2018-08-21T10:56:23.734Z,34.99
2018-08-21T10:57:33.835Z,34.96
2018-08-21T10:58:43.930Z,35.09
2018-08-21T10:59:54.029Z,35.11
2018-08-21T11:01:04.138Z,35.12
2018-08-21T11:02:14.097Z,35.15
2018-08-21T11:03:24.384Z,35.24
2018-08-21T11:04:33.950Z,35.26
2018-08-21T11:05:44.055Z,35.28
2018-08-21T11:06:53.894Z,35.23
2018-08-21T11:08:03.979Z,35.28
2018-08-21T11:09:13.868Z,35.31
2018-08-21T11:10:23.963Z,35.38
2018-08-21T11:11:33.806Z,35.47
2018-08-21T11:12:43.927Z,35.61
2018-08-21T11:13:54.023Z,35.6
2018-08-21T11:15:04.126Z,35.57
2018-08-21T11:16:14.221Z,35.55
2018-08-21T11:17:24.317Z,35.55
2018-08-21T11:18:34.157Z,35.6
2018-08-21T11:19:44.040Z,35.6
2018-08-21T11:20:53.862Z,35.57
2018-08-21T11:22:03.499Z,35.65
2018-08-21T11:23:13.603Z,35.67
2018-08-21T11:24:23.696Z,35.65
2018-08-21T11:25:33.771Z,35.65
2018-08-21T11:26:43.864Z,35.67
2018-08-21T11:27:53.932Z,35.67
2018-08-21T11:29:03.764Z,35.82
2018-08-21T11:30:13.852Z,35.77
2018-08-21T11:31:23.955Z,35.89
2018-08-21T11:32:34.053Z,35.94
2018-08-21T11:33:43.627Z,35.99
2018-08-21T11:34:53.447Z,35.94
2018-08-21T11:36:03.282Z,36.04
2018-08-21T11:37:13.381Z,35.98
2018-08-21T11:38:23.557Z,35.94
2018-08-21T11:39:33.675Z,35.99
2018-08-21T11:40:43.781Z,36.09
2018-08-21T11:41:53.650Z,36.06
2018-08-21T11:43:03.754Z,36.12
2018-08-21T11:44:13.580Z,36.15
2018-08-21T11:45:23.426Z,36.15
2018-08-21T11:46:33.557Z,36.15
2018-08-21T11:47:43.646Z,36.08
2018-08-21T11:48:53.811Z,36.08
2018-08-21T11:50:03.931Z,36.21
2018-08-21T11:51:13.755Z,36.21
2018-08-21T11:52:23.844Z,36.26
2018-08-21T11:53:33.933Z,36.33
2018-08-21T11:54:44.044Z,36.33
2018-08-21T11:55:54.193Z,36.33
2018-08-21T11:57:04.488Z,36.36
2018-08-21T11:58:14.763Z,36.41
2018-08-21T11:59:24.874Z,36.47
2018-08-21T12:00:35.000Z,36.28
2018-08-21T12:01:44.566Z,36.41
2018-08-21T12:02:54.674Z,36.36
2018-08-21T12:04:04.775Z,36.28
2018-08-21T12:05:14.882Z,36.21
2018-08-21T12:06:25.030Z,36.28
2018-08-21T12:07:35.142Z,36.3
2018-08-21T12:08:45.227Z,36.33
2018-08-21T12:09:55.423Z,36.36
2018-08-21T12:11:05.732Z,36.41
2018-08-21T12:12:15.582Z,36.47
2018-08-21T12:13:25.688Z,36.51
2018-08-21T12:14:35.870Z,36.53
2018-08-21T12:15:46.096Z,36.58
2018-08-21T12:16:55.921Z,36.63
2018-08-21T12:18:06.073Z,36.71
2018-08-21T12:19:16.184Z,36.71
2018-08-21T12:20:26.296Z,36.77
2018-08-21T12:21:36.117Z,36.86
2018-08-21T12:22:45.679Z,36.78
2018-08-21T12:23:56.131Z,36.83
2018-08-21T12:25:06.206Z,36.74
2018-08-21T12:26:16.310Z,36.77
2018-08-21T12:27:26.432Z,36.81
2018-08-21T12:28:36.527Z,36.86
2018-08-21T12:29:46.452Z,36.84
2018-08-21T12:30:56.426Z,36.81
2018-08-21T12:32:06.279Z,36.77
2018-08-21T12:33:16.384Z,36.9
2018-08-21T12:34:26.485Z,36.93
2018-08-21T12:35:36.297Z,36.95
2018-08-21T12:36:46.449Z,36.96
2018-08-21T12:37:56.269Z,36.97
2018-08-21T12:39:05.831Z,36.9
2018-08-21T12:40:15.935Z,36.86
2018-08-21T12:41:25.780Z,36.84
2018-08-21T12:42:35.901Z,36.83
2018-08-21T12:43:46.034Z,36.88
2018-08-21T12:44:56.144Z,36.86
2018-08-21T12:46:06.242Z,36.9
2018-08-21T12:47:16.063Z,36.81
2018-08-21T12:48:26.141Z,36.77
2018-08-21T12:49:35.999Z,36.81
2018-08-21T12:50:46.097Z,36.9
2018-08-21T12:51:56.226Z,36.8
2018-08-21T12:53:06.326Z,36.78
2018-08-21T12:54:16.147Z,36.84
2018-08-21T12:55:26.211Z,36.83
2018-08-21T12:56:36.330Z,36.81
2018-08-21T12:57:46.428Z,36.86
2018-08-21T12:58:56.530Z,36.74
2018-08-21T13:00:06.736Z,36.83
2018-08-21T13:01:16.551Z,36.74
2018-08-21T13:02:26.651Z,36.65
2018-08-21T13:03:36.728Z,36.67
2018-08-21T13:04:46.817Z,36.62
2018-08-21T13:05:56.960Z,36.62
2018-08-21T13:07:07.065Z,36.7
2018-08-21T13:08:17.166Z,36.62
2018-08-21T13:09:26.997Z,36.78
2018-08-21T13:10:37.192Z,36.75
2018-08-21T13:11:47.336Z,36.73
2018-08-21T13:12:57.437Z,36.44
2018-08-21T13:14:07.574Z,36.41
2018-08-21T13:15:17.684Z,36.55
2018-08-21T13:16:27.502Z,36.61
2018-08-21T13:17:37.841Z,36.77
2018-08-21T13:18:47.680Z,36.73
2018-08-21T13:19:57.764Z,36.7
2018-08-21T13:21:07.847Z,36.7
2018-08-21T13:22:17.674Z,36.86
2018-08-21T13:23:27.816Z,36.84
2018-08-21T13:24:37.986Z,36.8
2018-08-21T13:25:48.221Z,36.81
2018-08-21T13:26:58.310Z,36.74
2018-08-21T13:28:08.149Z,36.86
2018-08-21T13:29:18.400Z,36.8
2018-08-21T13:30:28.765Z,36.74
2018-08-21T13:31:38.866Z,36.78
2018-08-21T13:32:48.978Z,36.83
2018-08-21T13:33:58.836Z,36.83
2018-08-21T13:35:08.958Z,36.86
2018-08-21T13:36:19.332Z,36.81
2018-08-21T13:37:29.654Z,36.83
2018-08-21T13:38:39.734Z,36.8
2018-08-21T13:39:49.827Z,36.65
2018-08-21T13:40:59.965Z,36.65
2018-08-21T13:42:10.074Z,36.77
2018-08-21T13:43:19.638Z,36.71
2018-08-21T13:44:29.885Z,36.8
2018-08-21T13:45:40.000Z,36.77
2018-08-21T13:46:49.653Z,36.86
2018-08-21T13:47:59.764Z,36.73
2018-08-21T13:49:09.901Z,36.8
2018-08-21T13:50:19.988Z,36.8
2018-08-21T13:51:30.078Z,36.84
2018-08-21T13:52:41.229Z,36.78
2018-08-21T13:53:51.370Z,36.8
2018-08-21T13:55:01.471Z,36.8
2018-08-21T13:56:11.577Z,36.84
2018-08-21T13:57:21.659Z,36.74
2018-08-21T13:58:31.932Z,36.8
2018-08-21T13:59:42.248Z,36.83
2018-08-21T14:00:52.358Z,36.9
2018-08-21T14:02:02.223Z,36.86
2018-08-21T14:03:12.505Z,36.86
2018-08-21T14:04:22.660Z,36.86
2018-08-21T14:05:32.762Z,36.84
2018-08-21T14:06:42.918Z,36.61
2018-08-21T14:07:53.127Z,36.36
2018-08-21T14:09:02.719Z,36.36
2018-08-21T14:10:12.881Z,36.51
2018-08-21T14:11:22.987Z,36.59
2018-08-21T14:12:32.882Z,36.68
2018-08-21T14:13:43.186Z,36.77
2018-08-21T14:14:53.018Z,36.83
2018-08-21T14:16:03.180Z,36.9
2018-08-21T14:17:12.995Z,37
2018-08-21T14:18:22.834Z,37.02
2018-08-21T14:19:32.921Z,37.14
2018-08-21T14:20:43.021Z,37.22
2018-08-21T14:21:53.375Z,37.19
2018-08-21T14:23:03.495Z,37.14
2018-08-21T14:24:13.593Z,37.12
2018-08-21T14:25:23.450Z,37.14
2018-08-21T14:26:33.585Z,37.05
2018-08-21T14:27:43.444Z,37
2018-08-21T14:28:53.316Z,36.93
2018-08-21T14:30:02.891Z,36.86
2018-08-21T14:31:12.997Z,36.83
2018-08-21T14:32:22.860Z,36.8
2018-08-21T14:33:32.739Z,36.83
2018-08-21T14:34:42.832Z,36.8
2018-08-21T14:35:52.926Z,36.89
2018-08-21T14:37:03.016Z,36.9
2018-08-21T14:38:13.090Z,36.99
2018-08-21T14:39:22.668Z,37.02
2018-08-21T14:40:32.762Z,37.07
2018-08-21T14:41:42.638Z,37.02
2018-08-21T14:42:53.052Z,37.05
2018-08-21T14:44:03.224Z,37.04
2018-08-21T14:45:13.464Z,36.96
2018-08-21T14:46:24.521Z,36.89
2018-08-21T14:47:35.377Z,36.84
2018-08-21T14:48:45.486Z,36.84
2018-08-21T14:49:55.593Z,36.8
2018-08-21T14:51:05.828Z,36.78
2018-08-21T14:52:15.974Z,36.83
2018-08-21T14:53:26.093Z,36.7
2018-08-21T14:54:36.195Z,36.61
2018-08-21T14:55:46.321Z,36.7
2018-08-21T14:56:56.213Z,36.74
2018-08-21T14:58:06.124Z,36.59
2018-08-21T14:59:16.005Z,36.67
2018-08-21T15:00:25.857Z,36.7
2018-08-21T15:01:36.255Z,36.62
2018-08-21T15:02:46.459Z,36.65
2018-08-21T15:03:56.560Z,36.63
2018-08-21T15:05:06.650Z,36.62
2018-08-21T15:06:16.738Z,36.62
2018-08-21T15:07:26.872Z,36.63
2018-08-21T15:08:36.995Z,36.62
2018-08-21T15:09:47.206Z,36.63
2018-08-21T15:10:57.112Z,36.63
2018-08-21T15:12:07.199Z,36.62
2018-08-21T15:13:17.050Z,36.61
2018-08-21T15:14:27.131Z,36.53
2018-08-21T15:15:37.235Z,36.63
2018-08-21T15:16:47.065Z,36.55
2018-08-21T15:17:56.893Z,36.56
2018-08-21T15:19:06.994Z,36.59
2018-08-21T15:20:17.104Z,36.67
2018-08-21T15:21:27.212Z,36.52
2018-08-21T15:22:37.071Z,36.43
2018-08-21T15:23:47.171Z,36.49
2018-08-21T15:24:57.249Z,36.37
2018-08-21T15:26:07.408Z,36.37
2018-08-21T15:27:17.504Z,36.24
2018-08-21T15:28:27.598Z,36.32
2018-08-21T15:29:37.178Z,36.22
2018-08-21T15:30:47.279Z,36.09
2018-08-21T15:31:57.440Z,36.06
2018-08-21T15:33:07.640Z,36.06
2018-08-21T15:34:17.852Z,36.05
2018-08-21T15:35:27.939Z,35.98
2018-08-21T15:36:38.060Z,35.96
2018-08-21T15:37:48.224Z,35.94